CheckWX is a tool to help pilots better visualize weather data.  It is not intended as a substitute for an official pre-flight weather briefing.

01:56:09 UTC

KBRD TAF
Brainerd Lakes Regional Airport
Brainerd, Minnesota, USA
KBRD 182320Z 1900/1924 24006KT P6SM SCT100 FM190700 20004KT P6SM BKN080 FM191000 VRB03KT P6SM SCT060 FM191500 24006KT P6SM SCT020 FM192000 25008KT P6SM SCT015 BKN030

Mar-19@
00:00 UTC

Mar-19 @ 00:00 UTC

Mar-19@
07:00 UTC

Mar-19 @ 07:00 UTC

KBRD 182320Z 1900/1924 24006KT P6SM SCT100
Wind
  • 240° at 6 KTS
Cloud Levels
  • Scattered at 10,000' AGL

Mar-19@
07:00 UTC

Mar-19 @ 07:00 UTC

Mar-19@
10:00 UTC

Mar-19 @ 10:00 UTC

FM190700 20004KT P6SM BKN080

From

From Standard forecast or significant change

Wind
  • 200° at 4 KTS
Cloud Levels
  • Broken at 8,000' AGL

Mar-19@
10:00 UTC

Mar-19 @ 10:00 UTC

Mar-19@
15:00 UTC

Mar-19 @ 15:00 UTC

FM191000 VRB03KT P6SM SCT060

From

From Standard forecast or significant change

Wind
  • Variable at 3 KTS
Cloud Levels
  • Scattered at 6,000' AGL

Mar-19@
15:00 UTC

Mar-19 @ 15:00 UTC

Mar-19@
20:00 UTC

Mar-19 @ 20:00 UTC

FM191500 24006KT P6SM SCT020

From

From Standard forecast or significant change

Wind
  • 240° at 6 KTS
Cloud Levels
  • Scattered at 2,000' AGL

Mar-19@
20:00 UTC

Mar-19 @ 20:00 UTC

Mar-20@
00:00 UTC

Mar-20 @ 00:00 UTC

FM192000 25008KT P6SM SCT015 BKN030

From

From Standard forecast or significant change

Wind
  • 250° at 8 KTS
Cloud Levels
  • Scattered at 1,500' AGL
  • Broken at 3,000' AGL